createdAt,value
2023-06-25T00:00:49.662Z,83.30
2023-06-25T00:03:16.924Z,82.90
2023-06-25T00:05:44.328Z,82.40
2023-06-25T00:08:11.735Z,82.70
2023-06-25T00:10:39.212Z,82.00
2023-06-25T00:13:09.839Z,80.80
2023-06-25T00:15:37.118Z,80.30
2023-06-25T00:18:05.482Z,80.00
2023-06-25T00:20:34.469Z,80.10
2023-06-25T00:23:06.955Z,80.40
2023-06-25T00:25:35.977Z,80.70
2023-06-25T00:28:03.930Z,81.00
2023-06-25T00:30:31.358Z,81.60
2023-06-25T00:32:58.822Z,81.30
2023-06-25T00:35:40.266Z,81.50
2023-06-25T00:38:07.630Z,81.50
2023-06-25T00:40:35.269Z,81.60
2023-06-25T00:43:06.039Z,81.80
2023-06-25T00:45:34.568Z,82.10
2023-06-25T00:48:03.406Z,82.30
2023-06-25T00:50:30.943Z,82.70
2023-06-25T00:52:58.541Z,82.90
2023-06-25T00:55:26.728Z,83.20
2023-06-25T00:57:57.314Z,83.60
2023-06-25T01:00:26.443Z,84.00
2023-06-25T01:03:28.472Z,84.40
2023-06-25T01:06:07.731Z,84.50
2023-06-25T01:08:40.370Z,84.60
2023-06-25T01:11:12.475Z,84.50
2023-06-25T01:13:40.245Z,84.50
2023-06-25T01:16:08.173Z,84.70
2023-06-25T01:18:45.222Z,84.70
2023-06-25T01:21:18.206Z,84.60
2023-06-25T01:23:45.866Z,84.20
2023-06-25T01:26:13.185Z,83.80
2023-06-25T01:28:42.489Z,83.70
2023-06-25T01:31:09.796Z,83.00
2023-06-25T01:33:38.205Z,82.10
2023-06-25T01:36:05.875Z,81.50
2023-06-25T01:38:33.366Z,81.40
2023-06-25T01:41:00.662Z,81.30
2023-06-25T01:43:28.070Z,81.40
2023-06-25T01:45:55.393Z,81.20
2023-06-25T01:48:22.743Z,81.00
2023-06-25T01:50:50.011Z,81.00
2023-06-25T01:53:18.717Z,80.90
2023-06-25T01:55:45.980Z,80.70
2023-06-25T01:58:13.377Z,80.50
2023-06-25T02:00:42.004Z,80.40
2023-06-25T02:03:09.359Z,80.20
2023-06-25T02:05:37.651Z,79.20
2023-06-25T02:08:05.501Z,79.10
2023-06-25T02:10:34.065Z,79.20
2023-06-25T02:13:01.397Z,79.20
2023-06-25T02:15:28.911Z,79.30
2023-06-25T02:17:56.182Z,78.90
2023-06-25T02:20:23.484Z,79.20
2023-06-25T02:22:51.588Z,78.90
2023-06-25T02:25:19.088Z,78.80
2023-06-25T02:27:46.481Z,78.60
2023-06-25T02:30:14.464Z,78.70
2023-06-25T02:32:41.900Z,78.80
2023-06-25T02:35:09.859Z,78.90
2023-06-25T02:37:37.314Z,78.40
2023-06-25T02:40:06.332Z,78.30
2023-06-25T02:42:33.914Z,78.00
2023-06-25T02:45:01.287Z,77.80
2023-06-25T02:47:29.434Z,77.20
2023-06-25T02:49:56.754Z,76.70
2023-06-25T02:52:25.179Z,76.70
2023-06-25T02:54:52.605Z,76.90
2023-06-25T02:57:20.051Z,76.90
2023-06-25T02:59:47.488Z,77.00
2023-06-25T03:02:14.992Z,76.60
2023-06-25T03:04:42.313Z,76.80
2023-06-25T03:07:10.019Z,77.30
2023-06-25T03:09:37.688Z,77.80
2023-06-25T03:12:05.931Z,77.90
2023-06-25T03:14:35.627Z,78.10
2023-06-25T03:17:05.300Z,77.60
2023-06-25T03:19:32.961Z,77.30
2023-06-25T03:22:00.819Z,77.30
2023-06-25T03:24:30.129Z,77.10
2023-06-25T03:26:57.539Z,77.40
2023-06-25T03:29:24.861Z,77.60
2023-06-25T03:31:52.263Z,77.40
2023-06-25T03:34:23.479Z,77.50
2023-06-25T03:36:51.920Z,77.60
2023-06-25T03:39:19.740Z,77.60
2023-06-25T03:41:47.807Z,77.60
2023-06-25T03:44:15.136Z,77.80
2023-06-25T03:46:42.487Z,77.90
2023-06-25T03:49:09.972Z,78.10
2023-06-25T03:51:38.530Z,78.20
2023-06-25T03:54:07.822Z,78.20
2023-06-25T03:56:37.241Z,78.10
2023-06-25T03:59:04.585Z,78.00
2023-06-25T04:01:32.915Z,78.00
2023-06-25T04:04:00.456Z,78.10
2023-06-25T04:06:27.806Z,78.70
2023-06-25T04:08:55.187Z,79.20
2023-06-25T04:11:22.923Z,79.70
2023-06-25T04:13:50.750Z,80.50
2023-06-25T04:16:18.072Z,80.70
2023-06-25T04:18:46.295Z,80.60
2023-06-25T04:21:13.870Z,80.80
2023-06-25T04:23:41.922Z,80.70
2023-06-25T04:26:10.228Z,80.60
2023-06-25T04:28:37.855Z,80.80
2023-06-25T04:31:05.416Z,80.50
2023-06-25T04:33:34.680Z,80.60
2023-06-25T04:36:02.441Z,80.60
2023-06-25T04:38:30.672Z,80.60
2023-06-25T04:40:58.294Z,80.60
2023-06-25T04:43:25.860Z,80.10
2023-06-25T04:45:55.152Z,79.90
2023-06-25T04:48:22.515Z,80.00
2023-06-25T04:50:50.088Z,79.70
2023-06-25T04:53:17.951Z,79.40
2023-06-25T04:55:45.722Z,79.10
2023-06-25T04:58:13.058Z,79.10
2023-06-25T05:00:40.510Z,78.90
2023-06-25T05:03:08.092Z,78.40
2023-06-25T05:05:35.802Z,78.20
2023-06-25T05:08:03.372Z,77.60
2023-06-25T05:10:30.775Z,77.00
2023-06-25T05:12:58.253Z,76.70
2023-06-25T05:15:26.192Z,76.30
2023-06-25T05:17:53.532Z,76.00
2023-06-25T05:20:21.248Z,75.80
2023-06-25T05:22:48.627Z,75.40
2023-06-25T05:25:16.108Z,74.90
2023-06-25T05:27:43.536Z,74.90
2023-06-25T05:30:11.196Z,74.60
2023-06-25T05:32:43.232Z,74.10
2023-06-25T05:35:10.551Z,74.20
2023-06-25T05:37:37.906Z,74.50
2023-06-25T05:40:06.033Z,74.50
2023-06-25T05:42:33.408Z,74.60
2023-06-25T05:45:00.646Z,75.10
2023-06-25T05:47:28.020Z,75.60
2023-06-25T05:49:55.689Z,76.00
2023-06-25T05:52:23.154Z,75.80
2023-06-25T05:54:50.683Z,75.60
2023-06-25T05:57:19.672Z,75.30
2023-06-25T05:59:47.036Z,75.10
2023-06-25T06:02:14.404Z,74.90
2023-06-25T06:04:41.755Z,74.30
2023-06-25T06:07:09.198Z,73.60
2023-06-25T06:09:37.060Z,73.00
2023-06-25T06:12:04.811Z,72.10
2023-06-25T06:14:34.805Z,71.30
2023-06-25T06:17:02.402Z,71.00
2023-06-25T06:19:29.972Z,70.60
2023-06-25T06:21:57.409Z,69.40
2023-06-25T06:24:24.871Z,68.60
2023-06-25T06:26:52.559Z,67.80
2023-06-25T06:29:20.663Z,68.30
2023-06-25T06:31:47.979Z,67.40
2023-06-25T06:34:15.426Z,67.20
2023-06-25T06:36:42.758Z,65.80
2023-06-25T06:39:10.261Z,66.00
2023-06-25T06:41:37.644Z,66.40
2023-06-25T06:44:13.635Z,65.90
2023-06-25T06:46:41.538Z,64.80
2023-06-25T06:49:09.102Z,64.60
2023-06-25T06:51:37.748Z,63.60
2023-06-25T06:54:05.911Z,63.60
2023-06-25T06:56:34.309Z,62.30
2023-06-25T06:59:02.323Z,61.80
2023-06-25T07:01:29.904Z,61.70
2023-06-25T07:03:57.984Z,61.20
2023-06-25T07:06:25.403Z,60.90
2023-06-25T07:08:52.733Z,59.80
2023-06-25T07:11:20.129Z,58.50
2023-06-25T07:13:48.491Z,58.20
2023-06-25T07:16:16.342Z,58.60
2023-06-25T07:18:44.939Z,57.90
2023-06-25T07:21:12.479Z,57.10
2023-06-25T07:23:39.852Z,56.30
2023-06-25T07:26:08.488Z,55.00
2023-06-25T07:28:35.778Z,54.40
2023-06-25T07:31:03.208Z,54.00
2023-06-25T07:33:30.507Z,53.70
2023-06-25T07:35:57.849Z,55.60
2023-06-25T07:38:25.171Z,56.00
2023-06-25T07:40:52.640Z,56.50
2023-06-25T07:43:19.903Z,56.40
2023-06-25T07:45:47.315Z,56.20
2023-06-25T07:48:14.680Z,56.20
2023-06-25T07:50:42.033Z,56.00
2023-06-25T07:53:09.345Z,54.60
2023-06-25T07:55:56.225Z,54.40
2023-06-25T07:58:29.087Z,53.30
2023-06-25T08:00:56.436Z,52.90
2023-06-25T08:03:24.132Z,52.40
2023-06-25T08:05:51.996Z,51.80
2023-06-25T08:08:20.483Z,50.80
2023-06-25T08:10:52.545Z,50.40
2023-06-25T08:13:21.813Z,50.10
2023-06-25T08:15:49.335Z,48.50
2023-06-25T08:18:16.751Z,47.60
2023-06-25T08:20:44.803Z,48.30
2023-06-25T08:23:12.155Z,47.80
2023-06-25T08:25:40.294Z,47.80
2023-06-25T08:28:08.564Z,47.60
2023-06-25T08:30:35.930Z,47.80
2023-06-25T08:33:03.896Z,48.50
2023-06-25T08:35:31.170Z,49.10
2023-06-25T08:37:58.642Z,48.90
2023-06-25T08:40:28.970Z,49.00
2023-06-25T08:42:56.417Z,48.90
2023-06-25T08:45:23.775Z,48.20
2023-06-25T08:47:56.762Z,48.30
2023-06-25T08:50:24.943Z,48.50
2023-06-25T08:52:52.673Z,48.40
2023-06-25T08:55:23.483Z,47.30
2023-06-25T08:57:50.950Z,46.60
2023-06-25T09:00:18.570Z,48.40
2023-06-25T09:02:46.109Z,48.50
2023-06-25T09:05:15.107Z,48.90
2023-06-25T09:07:46.873Z,48.00
2023-06-25T09:10:14.713Z,49.20
2023-06-25T09:12:46.972Z,48.80
2023-06-25T09:15:14.511Z,47.40
2023-06-25T09:17:42.591Z,46.20
2023-06-25T09:20:10.304Z,46.90
2023-06-25T09:22:58.325Z,46.90
2023-06-25T09:25:30.697Z,48.00
2023-06-25T09:28:01.115Z,49.70
2023-06-25T09:30:28.589Z,50.40
2023-06-25T09:32:57.262Z,49.00
2023-06-25T09:35:31.040Z,48.80
2023-06-25T09:37:58.459Z,48.70
2023-06-25T09:40:25.695Z,48.20
2023-06-25T09:42:57.986Z,48.10
2023-06-25T09:45:27.518Z,48.00
2023-06-25T09:47:57.975Z,48.90
2023-06-25T09:50:39.589Z,49.10
2023-06-25T09:53:11.979Z,49.30
2023-06-25T09:55:39.918Z,49.80
2023-06-25T09:58:18.622Z,48.90
2023-06-25T10:00:46.515Z,51.90
2023-06-25T10:03:16.722Z,50.40
2023-06-25T10:05:45.098Z,48.40
2023-06-25T10:08:13.942Z,50.10
2023-06-25T10:10:41.659Z,49.40
2023-06-25T10:13:09.488Z,47.50
2023-06-25T10:15:38.105Z,48.40
2023-06-25T10:18:08.506Z,47.60
2023-06-25T10:20:38.390Z,46.70
2023-06-25T10:23:05.862Z,46.10
2023-06-25T10:25:33.680Z,46.10
2023-06-25T10:28:12.796Z,45.40
2023-06-25T10:30:50.791Z,44.80
2023-06-25T10:33:19.217Z,45.50
2023-06-25T10:35:59.618Z,46.80
2023-06-25T10:38:27.104Z,48.60
2023-06-25T10:40:56.119Z,48.20
2023-06-25T10:43:23.597Z,49.40
2023-06-25T10:45:57.300Z,49.50
2023-06-25T10:48:26.115Z,49.50
2023-06-25T10:50:54.648Z,49.70
2023-06-25T10:53:23.634Z,49.10
2023-06-25T10:55:53.357Z,49.70
2023-06-25T10:58:22.664Z,49.30
2023-06-25T11:00:57.436Z,48.60
2023-06-25T11:03:27.914Z,49.70
2023-06-25T11:06:02.080Z,49.10
2023-06-25T11:08:29.600Z,52.50
2023-06-25T11:10:57.489Z,53.30
2023-06-25T11:13:24.780Z,52.30
2023-06-25T11:15:52.884Z,50.30
2023-06-25T11:18:22.885Z,49.10
2023-06-25T11:20:50.907Z,49.70
2023-06-25T11:23:18.329Z,51.20
2023-06-25T11:25:45.951Z,53.60
2023-06-25T11:28:16.665Z,52.30
2023-06-25T11:30:47.180Z,52.40
2023-06-25T11:33:19.464Z,50.80
2023-06-25T11:35:52.062Z,48.50
2023-06-25T11:38:29.291Z,47.90
2023-06-25T11:40:58.674Z,48.30
2023-06-25T11:43:27.191Z,47.70
2023-06-25T11:45:54.889Z,49.00
2023-06-25T11:48:23.012Z,47.10
2023-06-25T11:50:51.245Z,46.60
2023-06-25T11:53:18.687Z,45.80
2023-06-25T11:55:47.461Z,44.40
2023-06-25T11:58:14.861Z,42.70
2023-06-25T12:00:44.995Z,42.80
2023-06-25T12:03:13.037Z,43.40
2023-06-25T12:05:48.679Z,41.50
2023-06-25T12:08:19.255Z,38.70
2023-06-25T12:10:46.882Z,40.40
2023-06-25T12:13:14.174Z,40.80
2023-06-25T12:15:41.666Z,42.30
2023-06-25T12:18:08.979Z,42.90
2023-06-25T12:20:36.422Z,47.20
2023-06-25T12:23:03.781Z,48.20
2023-06-25T12:25:31.162Z,49.60
2023-06-25T12:27:59.519Z,49.80
2023-06-25T12:30:26.986Z,51.00
2023-06-25T12:32:56.771Z,49.70
2023-06-25T12:35:25.205Z,48.80
2023-06-25T12:37:53.665Z,47.30
2023-06-25T12:40:21.289Z,47.10
2023-06-25T12:42:49.906Z,47.70
2023-06-25T12:45:18.685Z,48.20
2023-06-25T12:47:47.418Z,48.90
2023-06-25T12:50:15.011Z,48.80
2023-06-25T12:52:42.316Z,48.00
2023-06-25T12:55:10.122Z,47.80
2023-06-25T12:57:37.881Z,48.20
2023-06-25T13:00:12.519Z,47.80
2023-06-25T13:02:45.148Z,48.20
2023-06-25T13:05:12.522Z,47.50
2023-06-25T13:07:40.285Z,47.30
2023-06-25T13:10:08.073Z,47.00
2023-06-25T13:12:35.608Z,46.40
2023-06-25T13:15:03.129Z,47.10
2023-06-25T13:17:30.661Z,47.30
2023-06-25T13:19:57.915Z,48.40
2023-06-25T13:22:25.397Z,48.60
2023-06-25T13:24:52.780Z,48.90
2023-06-25T13:27:20.145Z,46.90
2023-06-25T13:29:47.554Z,46.80
2023-06-25T13:32:14.854Z,47.30
2023-06-25T13:34:42.424Z,47.00
2023-06-25T13:37:09.729Z,46.70
2023-06-25T13:39:39.984Z,46.60
2023-06-25T13:42:07.851Z,46.40
2023-06-25T13:44:35.294Z,46.40
2023-06-25T13:47:02.834Z,45.80
2023-06-25T13:49:30.281Z,45.70
2023-06-25T13:51:57.799Z,45.50
2023-06-25T13:54:25.113Z,44.80
2023-06-25T13:56:56.070Z,44.10
2023-06-25T13:59:24.605Z,43.20
2023-06-25T14:01:52.062Z,43.40
2023-06-25T14:04:19.749Z,41.90
2023-06-25T14:06:47.197Z,41.10
2023-06-25T14:09:14.846Z,41.00
2023-06-25T14:11:42.170Z,41.90
2023-06-25T14:14:09.582Z,40.70
2023-06-25T14:16:36.824Z,39.90
2023-06-25T14:19:04.273Z,39.90
2023-06-25T14:21:32.272Z,40.00
2023-06-25T14:23:59.542Z,39.10
2023-06-25T14:26:26.825Z,38.70
2023-06-25T14:29:10.386Z,39.20
2023-06-25T14:31:38.385Z,39.80
2023-06-25T14:34:06.008Z,39.60
2023-06-25T14:36:34.863Z,40.20
2023-06-25T14:39:02.210Z,41.00
2023-06-25T14:41:30.830Z,42.20
2023-06-25T14:43:58.181Z,42.90
2023-06-25T14:46:25.741Z,44.10
2023-06-25T14:48:53.244Z,45.30
2023-06-25T14:51:21.907Z,45.20
2023-06-25T14:53:49.376Z,45.70
2023-06-25T14:56:17.028Z,46.80
2023-06-25T14:58:44.387Z,48.40
2023-06-25T15:01:11.835Z,48.00
2023-06-25T15:03:39.496Z,48.40
2023-06-25T15:06:11.427Z,50.80
2023-06-25T15:08:41.879Z,52.80
2023-06-25T15:11:09.152Z,52.80
2023-06-25T15:13:36.884Z,53.70
2023-06-25T15:16:04.361Z,54.20
2023-06-25T15:18:31.984Z,54.00
2023-06-25T15:20:59.332Z,53.60
2023-06-25T15:23:27.144Z,53.70
2023-06-25T15:25:56.408Z,53.10
2023-06-25T15:28:25.528Z,53.80
2023-06-25T15:30:53.973Z,54.00
2023-06-25T15:33:21.645Z,55.00
2023-06-25T15:35:48.874Z,54.50
2023-06-25T15:38:16.406Z,54.30
2023-06-25T15:40:43.712Z,54.00
2023-06-25T15:43:11.050Z,54.50
2023-06-25T15:45:41.487Z,55.80
2023-06-25T15:48:09.534Z,56.20
2023-06-25T15:50:38.438Z,56.90
2023-06-25T15:53:06.555Z,56.20
2023-06-25T15:55:34.141Z,56.60
2023-06-25T15:58:03.468Z,58.40
2023-06-25T16:00:31.205Z,60.50
2023-06-25T16:02:58.672Z,61.20
2023-06-25T16:05:26.184Z,62.10
2023-06-25T16:07:53.460Z,61.10
2023-06-25T16:10:20.815Z,61.80
2023-06-25T16:12:48.196Z,62.60
2023-06-25T16:15:15.726Z,62.80
2023-06-25T16:17:43.081Z,62.80
2023-06-25T16:20:12.620Z,63.10
2023-06-25T16:22:41.699Z,63.00
2023-06-25T16:25:09.487Z,62.90
2023-06-25T16:27:38.467Z,63.10
2023-06-25T16:30:06.776Z,63.40
2023-06-25T16:32:35.251Z,63.20
2023-06-25T16:35:03.239Z,63.60
2023-06-25T16:37:30.706Z,63.80
2023-06-25T16:39:58.091Z,64.60
2023-06-25T16:42:25.545Z,64.90
2023-06-25T16:44:53.061Z,65.00
2023-06-25T16:47:20.682Z,65.50
2023-06-25T16:49:48.291Z,65.40
2023-06-25T16:52:15.777Z,65.70
2023-06-25T16:54:43.260Z,65.90
2023-06-25T16:57:10.745Z,65.30
2023-06-25T16:59:38.150Z,65.50
2023-06-25T17:02:06.597Z,65.50
2023-06-25T17:04:39.048Z,65.90
2023-06-25T17:07:07.947Z,66.20
2023-06-25T17:09:39.524Z,66.20
2023-06-25T17:12:06.915Z,66.40
2023-06-25T17:14:34.231Z,66.60
2023-06-25T17:17:01.580Z,66.20
2023-06-25T17:19:28.863Z,66.60
2023-06-25T17:21:56.595Z,67.20
2023-06-25T17:24:24.095Z,68.20
2023-06-25T17:26:53.014Z,68.20
2023-06-25T17:29:20.935Z,68.20
2023-06-25T17:31:48.345Z,68.30
2023-06-25T17:34:15.803Z,68.10
2023-06-25T17:36:43.120Z,68.30
2023-06-25T17:39:11.717Z,68.40
2023-06-25T17:41:39.069Z,68.70
2023-06-25T17:44:06.457Z,68.70
2023-06-25T17:46:35.782Z,69.00
2023-06-25T17:49:03.460Z,68.90
2023-06-25T17:51:31.876Z,69.20
2023-06-25T17:53:59.233Z,69.80
2023-06-25T17:56:28.323Z,69.60
2023-06-25T17:58:55.745Z,70.00
2023-06-25T18:01:23.089Z,70.60
2023-06-25T18:03:53.598Z,70.80
2023-06-25T18:06:20.984Z,70.90
2023-06-25T18:08:48.410Z,71.00
2023-06-25T18:11:26.214Z,71.00
2023-06-25T18:13:55.538Z,71.40
2023-06-25T18:16:22.907Z,71.90
2023-06-25T18:18:51.053Z,72.40
2023-06-25T18:21:18.506Z,72.90
2023-06-25T18:23:45.965Z,73.50
2023-06-25T18:26:16.658Z,74.10
2023-06-25T18:28:44.645Z,74.10
2023-06-25T18:31:12.943Z,74.40
2023-06-25T18:33:40.958Z,74.50
2023-06-25T18:36:08.497Z,75.20
2023-06-25T18:38:35.968Z,75.70
2023-06-25T18:41:04.668Z,75.90
2023-06-25T18:43:32.104Z,76.20
2023-06-25T18:45:59.621Z,76.20
2023-06-25T18:48:26.989Z,76.10
2023-06-25T18:50:54.380Z,76.30
2023-06-25T18:53:21.894Z,76.70
2023-06-25T18:55:50.425Z,76.80
2023-06-25T18:58:17.802Z,76.80
2023-06-25T19:00:45.583Z,76.60
2023-06-25T19:03:14.440Z,76.40
2023-06-25T19:05:42.258Z,75.80
2023-06-25T19:08:09.702Z,75.70
2023-06-25T19:10:38.338Z,75.50
2023-06-25T19:13:08.937Z,75.40
2023-06-25T19:15:36.371Z,75.40
2023-06-25T19:18:04.005Z,75.60
2023-06-25T19:20:31.598Z,74.40
2023-06-25T19:23:27.785Z,74.40
2023-06-25T19:25:49.525Z,74.10
2023-06-25T19:28:16.940Z,74.00
2023-06-25T19:30:47.274Z,74.00
2023-06-25T19:33:15.039Z,74.10
2023-06-25T19:35:42.420Z,73.90
2023-06-25T19:38:09.774Z,74.00
2023-06-25T19:40:37.616Z,73.80
2023-06-25T19:43:07.315Z,74.20
2023-06-25T19:45:34.680Z,74.10
2023-06-25T19:48:02.064Z,73.80
2023-06-25T19:50:29.533Z,73.80
2023-06-25T19:52:56.839Z,74.10
2023-06-25T19:55:25.385Z,74.10
2023-06-25T19:57:52.730Z,74.00
2023-06-25T20:00:20.452Z,74.00
2023-06-25T20:02:47.860Z,74.00
2023-06-25T20:05:16.949Z,73.80
2023-06-25T20:07:49.599Z,73.80
2023-06-25T20:10:18.008Z,73.80
2023-06-25T20:12:48.199Z,73.80
2023-06-25T20:15:18.897Z,73.70
2023-06-25T20:17:46.849Z,73.50
2023-06-25T20:20:14.679Z,73.50
2023-06-25T20:22:42.171Z,73.50
2023-06-25T20:25:12.880Z,73.30
2023-06-25T20:27:40.347Z,73.50
2023-06-25T20:30:08.916Z,73.40
2023-06-25T20:32:36.436Z,73.50
2023-06-25T20:35:03.923Z,73.70
2023-06-25T20:37:31.414Z,73.80
2023-06-25T20:39:59.931Z,73.80
2023-06-25T20:42:27.399Z,73.70
2023-06-25T20:44:54.822Z,73.70
2023-06-25T20:47:24.552Z,73.70
2023-06-25T20:49:52.024Z,73.60
2023-06-25T20:52:19.491Z,73.50
2023-06-25T20:54:49.905Z,73.50
2023-06-25T20:57:17.449Z,73.30
2023-06-25T20:59:44.812Z,73.60
2023-06-25T21:02:15.352Z,73.60
2023-06-25T21:04:42.752Z,73.70
2023-06-25T21:07:12.860Z,73.90
2023-06-25T21:09:40.640Z,74.00
2023-06-25T21:12:08.093Z,74.10
2023-06-25T21:14:35.473Z,74.20
2023-06-25T21:17:02.815Z,74.20
2023-06-25T21:19:30.116Z,74.20
2023-06-25T21:21:57.539Z,74.30
2023-06-25T21:24:26.194Z,74.30
2023-06-25T21:26:53.562Z,74.50
2023-06-25T21:29:21.483Z,74.30
2023-06-25T21:31:48.943Z,74.20
2023-06-25T21:34:16.291Z,74.50
2023-06-25T21:36:43.688Z,74.70
2023-06-25T21:39:11.088Z,74.80
2023-06-25T21:41:38.511Z,74.90
2023-06-25T21:44:06.013Z,74.90
2023-06-25T21:46:33.477Z,75.00
2023-06-25T21:49:00.735Z,75.10
2023-06-25T21:51:28.081Z,75.30
2023-06-25T21:53:55.428Z,75.10
2023-06-25T21:56:22.887Z,75.00
2023-06-25T21:58:50.262Z,75.20
2023-06-25T22:01:17.699Z,75.50
2023-06-25T22:03:45.046Z,75.60
2023-06-25T22:06:14.205Z,75.90
2023-06-25T22:08:41.566Z,76.00
2023-06-25T22:11:08.888Z,76.10
2023-06-25T22:13:36.589Z,76.20
2023-06-25T22:16:04.054Z,76.20
2023-06-25T22:18:31.459Z,76.20
2023-06-25T22:20:59.085Z,76.20
2023-06-25T22:23:26.457Z,76.20
2023-06-25T22:25:53.798Z,76.10
2023-06-25T22:28:21.151Z,76.30
2023-06-25T22:30:50.810Z,76.50
2023-06-25T22:33:18.162Z,76.50
2023-06-25T22:35:46.676Z,76.80
2023-06-25T22:38:14.477Z,76.50
2023-06-25T22:40:43.448Z,76.40
2023-06-25T22:43:11.160Z,76.40
2023-06-25T22:45:38.500Z,76.40
2023-06-25T22:48:06.255Z,76.40
2023-06-25T22:50:33.965Z,76.30
2023-06-25T22:53:05.502Z,76.20
2023-06-25T22:55:35.425Z,76.20
2023-06-25T22:58:03.270Z,76.00
2023-06-25T23:00:31.029Z,75.90
2023-06-25T23:02:58.663Z,75.70
2023-06-25T23:05:29.174Z,75.40
2023-06-25T23:07:59.278Z,75.40
2023-06-25T23:10:26.813Z,75.30
2023-06-25T23:12:58.014Z,75.20
2023-06-25T23:15:25.649Z,75.10
2023-06-25T23:17:55.989Z,74.90
2023-06-25T23:20:24.959Z,75.00
2023-06-25T23:22:53.999Z,74.90
2023-06-25T23:25:29.340Z,75.10
2023-06-25T23:27:58.941Z,75.00
2023-06-25T23:30:27.447Z,74.80
2023-06-25T23:32:55.176Z,74.30
2023-06-25T23:35:22.544Z,74.20
2023-06-25T23:37:50.749Z,74.10
2023-06-25T23:40:18.086Z,74.00
2023-06-25T23:42:45.450Z,74.10
2023-06-25T23:45:12.820Z,73.90
2023-06-25T23:47:40.192Z,73.80
2023-06-25T23:50:07.922Z,74.10
2023-06-25T23:52:35.306Z,74.20
2023-06-25T23:55:02.644Z,74.00
2023-06-25T23:57:31.754Z,74.30
2023-06-25T23:59:59.015Z,74.50
